createdAt,value
2023-03-19T00:00:33.050Z,22.38
2023-03-19T00:03:00.108Z,22.48
2023-03-19T00:05:26.940Z,22.14
2023-03-19T00:07:53.539Z,22.02
2023-03-19T00:10:20.484Z,22.10
2023-03-19T00:12:47.345Z,21.78
2023-03-19T00:15:15.220Z,21.69
2023-03-19T00:17:42.886Z,21.56
2023-03-19T00:20:11.534Z,21.45
2023-03-19T00:22:38.224Z,21.44
2023-03-19T00:25:05.173Z,21.20
2023-03-19T00:27:31.734Z,20.91
2023-03-19T00:29:58.281Z,21.28
2023-03-19T00:32:25.631Z,21.51
2023-03-19T00:34:52.817Z,22.14
2023-03-19T00:37:19.434Z,21.67
2023-03-19T00:39:45.945Z,21.10
2023-03-19T00:42:13.530Z,20.95
2023-03-19T00:44:40.019Z,21.29
2023-03-19T00:47:07.271Z,21.51
2023-03-19T00:49:33.805Z,21.69
2023-03-19T00:52:00.493Z,21.64
2023-03-19T00:54:27.457Z,21.83
2023-03-19T00:56:54.190Z,21.89
2023-03-19T00:59:20.775Z,21.73
2023-03-19T01:01:47.388Z,22.11
2023-03-19T01:04:14.852Z,22.18
2023-03-19T01:06:41.922Z,22.32
2023-03-19T01:09:08.593Z,22.32
2023-03-19T01:11:36.330Z,22.01
2023-03-19T01:14:02.883Z,21.39
2023-03-19T01:16:29.500Z,21.56
2023-03-19T01:18:56.123Z,21.53
2023-03-19T01:21:23.009Z,21.76
2023-03-19T01:23:51.795Z,21.80
2023-03-19T01:26:19.457Z,21.96
2023-03-19T01:28:47.846Z,21.95
2023-03-19T01:31:15.611Z,22.06
2023-03-19T01:33:51.551Z,22.21
2023-03-19T01:36:47.246Z,22.36
2023-03-19T01:39:16.981Z,22.25
2023-03-19T01:41:44.132Z,22.13
2023-03-19T01:44:30.674Z,22.10
2023-03-19T01:47:29.540Z,22.13
2023-03-19T01:50:40.965Z,22.29
2023-03-19T01:53:27.692Z,22.24
2023-03-19T01:56:26.939Z,22.20
2023-03-19T01:59:18.117Z,21.96
2023-03-19T02:02:11.894Z,22.05
2023-03-19T02:04:41.960Z,21.88
2023-03-19T02:07:09.557Z,21.65
2023-03-19T02:09:37.030Z,21.39
2023-03-19T02:12:04.592Z,21.39
2023-03-19T02:14:31.457Z,21.64
2023-03-19T02:16:58.342Z,21.42
2023-03-19T02:19:31.100Z,21.18
2023-03-19T02:22:00.219Z,21.33
2023-03-19T02:24:33.760Z,21.61
2023-03-19T02:27:09.053Z,21.35
2023-03-19T02:29:38.458Z,21.21
2023-03-19T02:32:05.092Z,21.63
2023-03-19T02:34:36.302Z,21.70
2023-03-19T02:37:26.372Z,21.29
2023-03-19T02:40:07.823Z,21.01
2023-03-19T02:42:35.300Z,20.96
2023-03-19T02:45:01.935Z,20.84
2023-03-19T02:47:28.719Z,20.97
2023-03-19T02:49:55.460Z,21.02
2023-03-19T02:52:22.916Z,21.12
2023-03-19T02:54:49.557Z,21.31
2023-03-19T02:57:16.414Z,21.50
2023-03-19T02:59:42.915Z,21.45
2023-03-19T03:02:10.419Z,21.69
2023-03-19T03:04:37.205Z,21.50
2023-03-19T03:07:04.803Z,21.60
2023-03-19T03:09:31.803Z,21.71
2023-03-19T03:11:58.755Z,21.72
2023-03-19T03:14:25.300Z,21.68
2023-03-19T03:16:52.296Z,21.73
2023-03-19T03:19:19.474Z,21.50
2023-03-19T03:21:46.929Z,21.45
2023-03-19T03:24:13.525Z,21.51
2023-03-19T03:26:40.404Z,21.54
2023-03-19T03:29:07.332Z,21.63
2023-03-19T03:31:34.770Z,21.58
2023-03-19T03:34:01.961Z,21.53
2023-03-19T03:36:28.756Z,21.66
2023-03-19T03:38:55.541Z,21.75
2023-03-19T03:41:22.369Z,21.79
2023-03-19T03:43:49.157Z,21.98
2023-03-19T03:46:15.786Z,22.01
2023-03-19T03:48:43.016Z,21.90
2023-03-19T03:51:10.022Z,21.92
2023-03-19T03:53:36.645Z,21.89
2023-03-19T03:56:04.423Z,21.94
2023-03-19T03:58:31.634Z,21.87
2023-03-19T04:00:58.336Z,21.80
2023-03-19T04:03:25.172Z,21.70
2023-03-19T04:05:52.741Z,21.70
2023-03-19T04:08:21.256Z,21.63
2023-03-19T04:10:47.912Z,21.33
2023-03-19T04:13:14.861Z,21.58
2023-03-19T04:15:44.716Z,21.68
2023-03-19T04:18:12.317Z,21.71
2023-03-19T04:20:39.042Z,21.63
2023-03-19T04:23:05.652Z,21.59
2023-03-19T04:25:32.673Z,21.63
2023-03-19T04:27:59.216Z,21.48
2023-03-19T04:30:28.267Z,21.57
2023-03-19T04:32:56.581Z,21.65
2023-03-19T04:35:23.169Z,21.68
2023-03-19T04:37:49.780Z,21.70
2023-03-19T04:40:18.405Z,21.64
2023-03-19T04:42:45.144Z,21.74
2023-03-19T04:45:28.079Z,21.67
2023-03-19T04:47:54.631Z,21.72
2023-03-19T04:50:21.234Z,21.75
2023-03-19T04:52:47.952Z,21.73
2023-03-19T04:55:15.149Z,21.77
2023-03-19T04:57:59.573Z,21.91
2023-03-19T05:00:30.515Z,21.76
2023-03-19T05:02:57.669Z,21.66
2023-03-19T05:05:24.512Z,21.71
2023-03-19T05:07:51.074Z,21.67
2023-03-19T05:10:17.734Z,21.57
2023-03-19T05:12:44.705Z,21.50
2023-03-19T05:15:12.105Z,21.39
2023-03-19T05:17:45.457Z,21.51
2023-03-19T05:20:15.916Z,21.47
2023-03-19T05:22:48.582Z,21.28
2023-03-19T05:25:17.214Z,21.48
2023-03-19T05:27:44.996Z,21.37
2023-03-19T05:30:18.410Z,21.47
2023-03-19T05:33:01.072Z,21.46
2023-03-19T05:35:37.683Z,21.54
2023-03-19T05:38:11.030Z,21.40
2023-03-19T05:40:41.814Z,21.31
2023-03-19T05:43:19.787Z,21.36
2023-03-19T05:45:51.733Z,21.34
2023-03-19T05:48:22.205Z,21.34
2023-03-19T05:50:48.972Z,21.13
2023-03-19T05:53:24.719Z,21.13
2023-03-19T05:56:11.666Z,21.07
2023-03-19T05:58:50.925Z,21.29
2023-03-19T06:01:22.705Z,21.42
2023-03-19T06:03:49.538Z,21.30
2023-03-19T06:06:16.531Z,21.29
2023-03-19T06:08:45.209Z,21.32
2023-03-19T06:11:16.785Z,21.59
2023-03-19T06:13:47.500Z,21.67
2023-03-19T06:16:16.811Z,21.20
2023-03-19T06:18:51.565Z,20.58
2023-03-19T06:21:18.914Z,20.61
2023-03-19T06:23:45.736Z,20.77
2023-03-19T06:26:16.152Z,20.97
2023-03-19T06:28:48.841Z,21.12
2023-03-19T06:31:16.514Z,21.05
2023-03-19T06:34:03.344Z,20.96
2023-03-19T06:36:38.284Z,21.15
2023-03-19T06:39:05.135Z,21.17
2023-03-19T06:41:31.785Z,21.08
2023-03-19T06:44:08.826Z,21.11
2023-03-19T06:46:35.310Z,21.11
2023-03-19T06:49:01.847Z,21.21
2023-03-19T06:51:28.507Z,20.89
2023-03-19T06:53:55.201Z,20.89
2023-03-19T06:56:21.911Z,20.66
2023-03-19T06:58:48.498Z,20.44
2023-03-19T07:01:15.030Z,20.55
2023-03-19T07:03:41.773Z,20.67
2023-03-19T07:06:08.293Z,20.49
2023-03-19T07:08:34.880Z,20.53
2023-03-19T07:11:06.006Z,20.47
2023-03-19T07:13:33.564Z,20.60
2023-03-19T07:16:00.507Z,20.82
2023-03-19T07:18:27.142Z,21.08
2023-03-19T07:20:53.781Z,21.29
2023-03-19T07:23:20.358Z,21.46
2023-03-19T07:25:47.592Z,21.44
2023-03-19T07:28:14.384Z,21.52
2023-03-19T07:30:40.896Z,21.57
2023-03-19T07:33:08.119Z,21.86
2023-03-19T07:35:35.289Z,21.98
2023-03-19T07:38:02.764Z,21.99
2023-03-19T07:40:29.649Z,21.85
2023-03-19T07:42:56.231Z,21.89
2023-03-19T07:45:23.169Z,21.63
2023-03-19T07:47:51.394Z,21.47
2023-03-19T07:50:18.077Z,21.63
2023-03-19T07:52:49.327Z,21.88
2023-03-19T07:55:15.850Z,21.58
2023-03-19T07:57:42.642Z,21.68
2023-03-19T08:00:10.630Z,21.90
2023-03-19T08:02:40.614Z,21.86
2023-03-19T08:05:08.047Z,21.93
2023-03-19T08:07:34.613Z,21.85
2023-03-19T08:10:01.643Z,21.82
2023-03-19T08:12:28.314Z,21.85
2023-03-19T08:14:54.930Z,21.98
2023-03-19T08:17:22.003Z,22.08
2023-03-19T08:19:48.506Z,21.95
2023-03-19T08:22:15.279Z,22.02
2023-03-19T08:24:41.768Z,22.10
2023-03-19T08:27:08.466Z,22.13
2023-03-19T08:29:35.315Z,21.82
2023-03-19T08:32:01.994Z,21.59
2023-03-19T08:34:29.148Z,21.62
2023-03-19T08:36:55.854Z,21.90
2023-03-19T08:39:22.425Z,21.91
2023-03-19T08:41:48.987Z,21.94
2023-03-19T08:44:16.198Z,21.70
2023-03-19T08:46:42.918Z,21.59
2023-03-19T08:49:09.527Z,21.48
2023-03-19T08:51:36.264Z,21.60
2023-03-19T08:54:02.885Z,21.61
2023-03-19T08:56:29.521Z,21.63
2023-03-19T08:58:57.059Z,21.57
2023-03-19T09:01:24.262Z,21.94
2023-03-19T09:03:50.800Z,21.95
2023-03-19T09:06:17.565Z,21.83
2023-03-19T09:08:44.863Z,21.96
2023-03-19T09:11:11.592Z,22.15
2023-03-19T09:13:38.236Z,22.33
2023-03-19T09:16:05.471Z,22.33
2023-03-19T09:18:32.845Z,22.42
2023-03-19T09:20:59.992Z,22.53
2023-03-19T09:23:26.646Z,22.53
2023-03-19T09:25:53.781Z,22.67
2023-03-19T09:28:21.101Z,22.70
2023-03-19T09:30:49.220Z,22.70
2023-03-19T09:33:17.387Z,22.68
2023-03-19T09:35:48.674Z,22.77
2023-03-19T09:38:15.404Z,22.78
2023-03-19T09:40:45.860Z,23.09
2023-03-19T09:43:18.309Z,23.28
2023-03-19T09:45:47.385Z,23.18
2023-03-19T09:48:28.766Z,23.39
2023-03-19T09:50:56.760Z,23.39
2023-03-19T09:53:43.432Z,23.19
2023-03-19T09:56:15.024Z,23.43
2023-03-19T09:58:42.548Z,23.65
2023-03-19T10:01:23.230Z,23.68
2023-03-19T10:04:09.518Z,23.60
2023-03-19T10:06:40.101Z,23.70
2023-03-19T10:09:31.591Z,23.66
2023-03-19T10:12:11.810Z,23.79
2023-03-19T10:14:47.937Z,24.03
2023-03-19T10:17:39.459Z,23.75
2023-03-19T10:20:10.525Z,23.71
2023-03-19T10:22:48.851Z,23.79
2023-03-19T10:25:22.726Z,23.91
2023-03-19T10:27:55.988Z,23.95
2023-03-19T10:30:22.714Z,23.83
2023-03-19T10:33:07.678Z,23.82
2023-03-19T10:35:43.185Z,24.05
2023-03-19T10:38:16.877Z,24.03
2023-03-19T10:40:55.083Z,24.24
2023-03-19T10:43:25.430Z,23.86
2023-03-19T10:45:51.988Z,24.13
2023-03-19T10:48:19.090Z,24.37
2023-03-19T10:50:54.824Z,24.30
2023-03-19T10:53:30.932Z,24.30
2023-03-19T10:56:16.199Z,24.40
2023-03-19T10:59:05.853Z,24.50
2023-03-19T11:01:41.562Z,24.69
2023-03-19T11:04:22.146Z,24.53
2023-03-19T11:06:51.445Z,24.62
2023-03-19T11:09:33.057Z,24.52
2023-03-19T11:12:08.516Z,24.84
2023-03-19T11:14:39.659Z,24.84
2023-03-19T11:17:29.480Z,24.76
2023-03-19T11:19:58.942Z,24.66
2023-03-19T11:22:31.566Z,24.45
2023-03-19T11:25:14.305Z,24.11
2023-03-19T11:27:41.339Z,24.35
2023-03-19T11:30:16.961Z,23.83
2023-03-19T11:33:23.258Z,23.95
2023-03-19T11:36:08.319Z,23.72
2023-03-19T11:38:58.499Z,23.58
2023-03-19T11:41:50.831Z,23.48
2023-03-19T11:44:35.200Z,23.35
2023-03-19T11:47:26.446Z,23.19
2023-03-19T11:50:18.708Z,23.06
2023-03-19T11:53:11.910Z,22.73
2023-03-19T11:56:01.049Z,22.64
2023-03-19T11:58:51.829Z,22.54
2023-03-19T12:01:25.246Z,22.63
2023-03-19T12:04:02.370Z,22.48
2023-03-19T12:06:36.845Z,22.27
2023-03-19T12:09:19.544Z,22.32
2023-03-19T12:11:53.652Z,22.53
2023-03-19T12:14:42.181Z,22.63
2023-03-19T12:17:23.923Z,22.59
2023-03-19T12:20:33.697Z,22.85
2023-03-19T12:23:27.478Z,23.03
2023-03-19T12:26:04.749Z,22.80
2023-03-19T12:28:51.143Z,22.85
2023-03-19T12:31:42.957Z,22.95
2023-03-19T12:34:34.453Z,22.92
2023-03-19T12:37:32.832Z,23.45
2023-03-19T12:40:19.110Z,24.07
2023-03-19T12:42:45.771Z,24.61
2023-03-19T12:45:22.976Z,24.85
2023-03-19T12:47:54.287Z,24.88
2023-03-19T12:50:22.448Z,24.73
2023-03-19T12:52:58.273Z,24.38
2023-03-19T12:55:42.904Z,24.17
2023-03-19T12:58:21.859Z,23.98
2023-03-19T13:00:51.106Z,24.49
2023-03-19T13:03:23.501Z,24.58
2023-03-19T13:06:05.016Z,24.91
2023-03-19T13:08:45.197Z,24.95
2023-03-19T13:11:23.439Z,24.43
2023-03-19T13:14:00.051Z,24.32
2023-03-19T13:16:42.153Z,24.22
2023-03-19T13:19:35.890Z,23.94
2023-03-19T13:22:09.653Z,24.25
2023-03-19T13:24:43.241Z,24.37
2023-03-19T13:27:18.267Z,24.17
2023-03-19T13:30:10.092Z,24.12
2023-03-19T13:32:42.736Z,23.97
2023-03-19T13:35:40.727Z,24.35
2023-03-19T13:38:15.500Z,24.42
2023-03-19T13:40:50.751Z,24.32
2023-03-19T13:43:29.803Z,24.52
2023-03-19T13:46:04.678Z,24.77
2023-03-19T13:48:46.581Z,25.06
2023-03-19T13:51:19.326Z,25.39
2023-03-19T13:54:11.553Z,25.14
2023-03-19T13:57:07.634Z,25.62
2023-03-19T13:59:36.745Z,25.50
2023-03-19T14:02:24.050Z,25.46
2023-03-19T14:05:04.058Z,25.33
2023-03-19T14:07:43.682Z,25.18
2023-03-19T14:10:22.702Z,25.26
2023-03-19T14:12:49.701Z,25.29
2023-03-19T14:15:23.786Z,25.45
2023-03-19T14:17:50.287Z,25.59
2023-03-19T14:20:21.189Z,25.82
2023-03-19T14:23:03.509Z,26.00
2023-03-19T14:25:57.836Z,26.16
2023-03-19T14:28:54.682Z,26.10
2023-03-19T14:31:26.818Z,26.12
2023-03-19T14:34:06.365Z,26.08
2023-03-19T14:36:36.914Z,25.56
2023-03-19T14:39:12.540Z,25.75
2023-03-19T14:41:44.810Z,25.47
2023-03-19T14:44:11.265Z,25.42
2023-03-19T14:47:15.330Z,25.62
2023-03-19T14:50:23.445Z,25.46
2023-03-19T14:53:04.233Z,25.44
2023-03-19T14:55:37.202Z,25.66
2023-03-19T14:58:04.629Z,25.64
2023-03-19T15:00:43.281Z,25.49
2023-03-19T15:03:28.541Z,25.63
2023-03-19T15:06:04.505Z,25.81
2023-03-19T15:08:36.091Z,25.88
2023-03-19T15:11:24.055Z,25.29
2023-03-19T15:14:11.900Z,25.35
2023-03-19T15:16:44.678Z,25.02
2023-03-19T15:19:11.572Z,25.11
2023-03-19T15:21:39.414Z,24.81
2023-03-19T15:24:13.139Z,24.75
2023-03-19T15:26:40.091Z,24.72
2023-03-19T15:29:12.090Z,24.64
2023-03-19T15:32:03.659Z,24.68
2023-03-19T15:34:31.109Z,24.77
2023-03-19T15:37:04.238Z,24.99
2023-03-19T15:39:36.866Z,25.02
2023-03-19T15:42:04.900Z,24.97
2023-03-19T15:44:38.244Z,25.04
2023-03-19T15:47:09.010Z,25.16
2023-03-19T15:49:39.773Z,25.28
2023-03-19T15:52:11.686Z,25.24
2023-03-19T15:54:38.812Z,25.26
2023-03-19T15:57:08.070Z,25.35
2023-03-19T15:59:34.900Z,25.37
2023-03-19T16:02:13.118Z,25.34
2023-03-19T16:05:06.698Z,25.39
2023-03-19T16:07:32.542Z,25.41
2023-03-19T16:09:59.878Z,25.38
2023-03-19T16:12:40.457Z,25.52
2023-03-19T16:15:28.554Z,25.42
2023-03-19T16:17:55.654Z,25.29
2023-03-19T16:20:22.519Z,25.16
2023-03-19T16:22:58.562Z,25.28
2023-03-19T16:25:30.146Z,25.59
2023-03-19T16:27:56.762Z,25.57
2023-03-19T16:30:26.506Z,25.43
2023-03-19T16:32:59.354Z,25.56
2023-03-19T16:35:27.757Z,25.67
2023-03-19T16:37:54.598Z,25.44
2023-03-19T16:40:21.232Z,25.44
2023-03-19T16:42:49.465Z,25.45
2023-03-19T16:45:18.933Z,25.28
2023-03-19T16:47:54.190Z,25.26
2023-03-19T16:50:22.869Z,25.21
2023-03-19T16:52:49.982Z,25.14
2023-03-19T16:55:32.281Z,25.03
2023-03-19T16:58:01.959Z,25.12
2023-03-19T17:00:31.859Z,24.67
2023-03-19T17:02:59.653Z,24.15
2023-03-19T17:05:27.628Z,24.06
2023-03-19T17:07:57.893Z,23.76
2023-03-19T17:10:27.738Z,23.88
2023-03-19T17:12:55.289Z,23.83
2023-03-19T17:15:28.037Z,23.80
2023-03-19T17:17:55.377Z,24.06
2023-03-19T17:20:27.918Z,24.16
2023-03-19T17:22:54.476Z,24.27
2023-03-19T17:25:21.521Z,24.32
2023-03-19T17:27:48.108Z,24.43
2023-03-19T17:30:14.873Z,24.37
2023-03-19T17:32:45.647Z,24.31
2023-03-19T17:35:30.795Z,24.41
2023-03-19T17:37:57.441Z,24.53
2023-03-19T17:40:27.993Z,24.56
2023-03-19T17:42:56.183Z,24.56
2023-03-19T17:45:29.592Z,24.49
2023-03-19T17:47:58.036Z,24.46
2023-03-19T17:50:27.311Z,24.52
2023-03-19T17:52:54.369Z,24.67
2023-03-19T17:55:24.194Z,24.54
2023-03-19T17:57:51.250Z,24.43
2023-03-19T18:00:23.141Z,24.51
2023-03-19T18:02:52.027Z,24.40
2023-03-19T18:05:21.649Z,24.52
2023-03-19T18:07:50.344Z,24.44
2023-03-19T18:10:19.344Z,24.56
2023-03-19T18:12:46.060Z,24.45
2023-03-19T18:15:13.563Z,24.22
2023-03-19T18:17:44.606Z,24.23
2023-03-19T18:20:14.594Z,24.26
2023-03-19T18:22:41.489Z,24.30
2023-03-19T18:25:19.789Z,24.33
2023-03-19T18:27:46.801Z,24.32
2023-03-19T18:30:16.460Z,24.25
2023-03-19T18:32:47.206Z,24.34
2023-03-19T18:35:20.396Z,24.41
2023-03-19T18:37:49.515Z,24.29
2023-03-19T18:40:21.950Z,24.03
2023-03-19T18:42:49.425Z,23.87
2023-03-19T18:45:17.295Z,23.87
2023-03-19T18:47:45.890Z,23.85
2023-03-19T18:50:20.518Z,23.99
2023-03-19T18:52:49.149Z,23.90
2023-03-19T18:55:16.213Z,23.75
2023-03-19T18:57:53.807Z,23.73
2023-03-19T19:00:25.333Z,23.88
2023-03-19T19:02:53.120Z,23.73
2023-03-19T19:05:23.718Z,23.52
2023-03-19T19:07:57.789Z,23.23
2023-03-19T19:10:25.823Z,22.87
2023-03-19T19:12:55.028Z,22.77
2023-03-19T19:15:48.214Z,22.36
2023-03-19T19:18:27.124Z,22.08
2023-03-19T19:20:54.186Z,22.21
2023-03-19T19:23:22.008Z,22.37
2023-03-19T19:25:51.933Z,22.41
2023-03-19T19:28:30.518Z,22.40
2023-03-19T19:30:59.600Z,22.09
2023-03-19T19:33:34.693Z,22.37
2023-03-19T19:36:02.705Z,22.08
2023-03-19T19:38:30.110Z,21.99
2023-03-19T19:40:59.952Z,21.89
2023-03-19T19:43:31.144Z,22.25
2023-03-19T19:45:58.772Z,22.20
2023-03-19T19:48:28.342Z,22.03
2023-03-19T19:50:56.228Z,22.29
2023-03-19T19:53:27.410Z,22.51
2023-03-19T19:55:54.092Z,22.62
2023-03-19T19:58:31.421Z,22.77
2023-03-19T20:01:03.699Z,22.56
2023-03-19T20:03:32.986Z,22.68
2023-03-19T20:06:01.993Z,22.53
2023-03-19T20:08:28.785Z,22.19
2023-03-19T20:10:56.248Z,22.40
2023-03-19T20:13:34.424Z,22.73
2023-03-19T20:16:02.670Z,22.65
2023-03-19T20:18:32.750Z,22.45
2023-03-19T20:20:59.573Z,22.65
2023-03-19T20:23:26.179Z,22.80
2023-03-19T20:25:52.894Z,22.30
2023-03-19T20:28:26.175Z,22.43
2023-03-19T20:30:54.363Z,22.41
2023-03-19T20:33:22.332Z,22.27
2023-03-19T20:35:49.579Z,22.63
2023-03-19T20:38:16.378Z,22.61
2023-03-19T20:40:45.808Z,22.58
2023-03-19T20:43:45.214Z,22.32
2023-03-19T20:46:12.473Z,22.01
2023-03-19T20:48:39.073Z,21.62
2023-03-19T20:51:05.943Z,21.63
2023-03-19T20:53:32.557Z,21.66
2023-03-19T20:56:00.053Z,21.65
2023-03-19T20:58:30.758Z,21.63
2023-03-19T21:00:58.523Z,21.57
2023-03-19T21:03:28.331Z,21.50
2023-03-19T21:06:01.642Z,21.56
2023-03-19T21:08:38.965Z,21.30
2023-03-19T21:11:08.784Z,21.07
2023-03-19T21:13:35.297Z,21.33
2023-03-19T21:16:01.972Z,21.23
2023-03-19T21:18:28.749Z,21.38
2023-03-19T21:20:56.781Z,21.54
2023-03-19T21:23:31.636Z,20.95
2023-03-19T21:26:08.855Z,20.81
2023-03-19T21:28:37.774Z,20.60
2023-03-19T21:31:05.793Z,20.67
2023-03-19T21:33:34.459Z,20.53
2023-03-19T21:36:02.580Z,20.72
2023-03-19T21:38:29.416Z,20.54
2023-03-19T21:41:01.515Z,20.56
2023-03-19T21:43:52.380Z,20.67
2023-03-19T21:46:24.626Z,20.85
2023-03-19T21:48:54.253Z,20.72
2023-03-19T21:51:21.619Z,20.77
2023-03-19T21:53:48.565Z,20.56
2023-03-19T21:56:33.156Z,20.40
2023-03-19T21:59:02.223Z,20.13
2023-03-19T22:01:28.848Z,20.27
2023-03-19T22:03:56.891Z,20.20
2023-03-19T22:06:25.284Z,20.16
2023-03-19T22:08:53.906Z,20.16
2023-03-19T22:11:35.774Z,20.20
2023-03-19T22:14:09.790Z,20.04
2023-03-19T22:16:36.474Z,19.90
2023-03-19T22:19:03.476Z,19.80
2023-03-19T22:21:32.943Z,19.89
2023-03-19T22:23:59.614Z,19.82
2023-03-19T22:26:31.871Z,19.74
2023-03-19T22:29:01.890Z,19.81
2023-03-19T22:31:28.963Z,19.98
2023-03-19T22:33:55.855Z,19.75
2023-03-19T22:36:22.534Z,19.84
2023-03-19T22:38:49.305Z,19.87
2023-03-19T22:41:29.357Z,19.89
2023-03-19T22:43:58.600Z,19.81
2023-03-19T22:46:25.597Z,20.03
2023-03-19T22:48:52.355Z,19.95
2023-03-19T22:51:22.464Z,20.05
2023-03-19T22:53:50.222Z,19.87
2023-03-19T22:56:18.249Z,19.89
2023-03-19T22:58:46.676Z,19.81
2023-03-19T23:01:41.404Z,19.77
2023-03-19T23:04:19.374Z,19.90
2023-03-19T23:06:46.258Z,19.31
2023-03-19T23:09:15.973Z,19.77
2023-03-19T23:11:42.523Z,19.62
2023-03-19T23:14:22.046Z,19.16
2023-03-19T23:16:56.598Z,19.04
2023-03-19T23:19:27.965Z,19.03
2023-03-19T23:21:54.879Z,19.15
2023-03-19T23:24:22.002Z,19.10
2023-03-19T23:26:50.333Z,19.28
2023-03-19T23:29:22.361Z,19.11
2023-03-19T23:31:50.856Z,19.04
2023-03-19T23:34:17.720Z,18.89
2023-03-19T23:36:44.743Z,18.91
2023-03-19T23:39:11.770Z,18.99
2023-03-19T23:41:48.185Z,19.08
2023-03-19T23:44:16.666Z,19.12
2023-03-19T23:46:45.483Z,18.96
2023-03-19T23:49:28.552Z,18.90
2023-03-19T23:51:55.641Z,18.94
2023-03-19T23:54:29.743Z,18.82
2023-03-19T23:56:59.641Z,18.99
2023-03-19T23:59:31.914Z,18.89
